Time;durP1;ratioP1;P1;durP2;ratioP2;P2;SDS_P1;SDS_P2;PMS_P1;PMS_P2;Temp;Humidity;BMP_temperature;BMP_pressure;BME280_temperature;BME280_humidity;BME280_pressure;Samples;Min_cycle;Max_cycle;Signal;HPM_P1;HPM_P2
2021/01/24 00:00:34;;;;;;;36.47;11.43;;;;;;;;;;8273742;28;20334;-74
2021/01/24 00:04:37;;;;;;;44.22;12.90;;;;;;;;;;8257798;28;20053;-74
2021/01/24 00:08:40;;;;;;;63.17;15.32;;;;;;;;;;8257079;28;20361;-74
2021/01/24 00:12:45;;;;;;;17.30;8.52;;;;;;;;;;8257599;28;20360;-74
2021/01/24 00:16:48;;;;;;;18.70;9.00;;;;;;;;;;8256804;28;20455;-74
2021/01/24 00:20:51;;;;;;;19.35;9.40;;;;;;;;;;8255386;28;20460;-73
2021/01/24 00:24:56;;;;;;;23.20;9.57;;;;;;;;;;8257202;28;20368;-74
2021/01/24 00:28:59;;;;;;;27.10;11.27;;;;;;;;;;8257284;28;20375;-73
2021/01/24 00:33:03;;;;;;;96.93;25.17;;;;;;;;;;8257034;28;20401;-73
2021/01/24 00:37:06;;;;;;;65.18;20.25;;;;;;;;;;8251984;28;20525;-74
2021/01/24 00:41:10;;;;;;;67.40;21.33;;;;;;;;;;8236260;28;20485;-73
2021/01/24 00:45:13;;;;;;;54.35;21.17;;;;;;;;;;8251620;28;20494;-73
2021/01/24 00:49:16;;;;;;;39.67;17.92;;;;;;;;;;8252545;28;20053;-73
2021/01/24 00:53:20;;;;;;;44.10;18.73;;;;;;;;;;8252150;28;20471;-73
2021/01/24 00:57:23;;;;;;;34.25;17.98;;;;;;;;;;8236029;28;20384;-74
2021/01/24 01:01:26;;;;;;;36.30;16.77;;;;;;;;;;8257732;28;20040;-74
2021/01/24 01:05:30;;;;;;;25.90;12.77;;;;;;;;;;8259042;28;20448;-73
2021/01/24 01:09:33;;;;;;;29.50;12.40;;;;;;;;;;8263086;28;20482;-73
2021/01/24 01:13:37;;;;;;;22.77;10.82;;;;;;;;;;8262940;28;20463;-73
2021/01/24 01:17:41;;;;;;;26.83;12.15;;;;;;;;;;8261024;28;20383;-74
2021/01/24 01:21:44;;;;;;;24.67;12.20;;;;;;;;;;8262078;28;20056;-73
2021/01/24 01:25:47;;;;;;;29.45;14.95;;;;;;;;;;8260965;28;20474;-73
2021/01/24 01:29:50;;;;;;;21.98;10.68;;;;;;;;;;8262457;28;20490;-73
2021/01/24 01:33:53;;;;;;;20.30;9.82;;;;;;;;;;8260802;28;20064;-74
2021/01/24 01:38:00;;;;;;;27.98;11.23;;;;;;;;;;8286904;28;20409;-74
2021/01/24 01:42:16;;;;;;;26.67;13.50;;;;;;;;;;8294883;28;20467;-73
2021/01/24 01:46:22;;;;;;;27.33;13.15;;;;;;;;;;8294751;28;20375;-74
2021/01/24 01:50:25;;;;;;;44.53;15.68;;;;;;;;;;8292802;28;20382;-73
2021/01/24 01:54:29;;;;;;;38.40;16.95;;;;;;;;;;8293830;28;20486;-74
2021/01/24 01:58:33;;;;;;;31.92;15.02;;;;;;;;;;8292204;28;20478;-73
2021/01/24 02:02:57;;;;;;;28.67;13.85;;;;;;;;;;8294125;28;20348;-74
2021/01/24 02:07:16;;;;;;;26.02;13.68;;;;;;;;;;8294035;28;20452;-73
2021/01/24 02:11:41;;;;;;;35.45;16.08;;;;;;;;;;8293784;28;20364;-73
2021/01/24 02:15:45;;;;;;;29.50;14.90;;;;;;;;;;8292496;28;20078;-73
2021/01/24 02:19:57;;;;;;;31.05;14.88;;;;;;;;;;8293645;28;20471;-73
2021/01/24 02:24:05;;;;;;;30.33;14.32;;;;;;;;;;8293103;28;20426;-73
2021/01/24 02:28:20;;;;;;;27.97;13.17;;;;;;;;;;8292625;28;20049;-74
2021/01/24 02:32:26;;;;;;;60.75;19.73;;;;;;;;;;8293453;28;20382;-73
2021/01/24 02:36:30;;;;;;;31.73;14.88;;;;;;;;;;8280015;28;20463;-74
2021/01/24 02:40:38;;;;;;;38.33;15.57;;;;;;;;;;8267380;28;20348;-73
2021/01/24 02:44:41;;;;;;;41.08;15.98;;;;;;;;;;8260575;28;20410;-75
2021/01/24 02:48:48;;;;;;;33.85;14.63;;;;;;;;;;8257971;28;20407;-74
2021/01/24 02:52:54;;;;;;;25.40;13.35;;;;;;;;;;8259401;28;20499;-74
2021/01/24 02:56:58;;;;;;;23.70;12.48;;;;;;;;;;8257712;28;20430;-73
2021/01/24 03:01:01;;;;;;;24.48;11.23;;;;;;;;;;8257566;28;20391;-74
2021/01/24 03:05:05;;;;;;;24.10;11.15;;;;;;;;;;8259617;28;20497;-73
2021/01/24 03:09:09;;;;;;;24.08;11.43;;;;;;;;;;8259141;28;20072;-74
2021/01/24 03:13:33;;;;;;;29.10;12.20;;;;;;;;;;8259444;28;20413;-74
2021/01/24 03:17:39;;;;;;;21.73;10.73;;;;;;;;;;8259176;28;20357;-74
2021/01/24 03:21:43;;;;;;;21.13;10.55;;;;;;;;;;8256699;28;20067;-74
2021/01/24 03:25:47;;;;;;;19.38;10.25;;;;;;;;;;8257429;28;20486;-74
2021/01/24 03:29:50;;;;;;;19.85;11.10;;;;;;;;;;8256868;28;20487;-73
2021/01/24 03:33:53;;;;;;;22.60;9.55;;;;;;;;;;8258499;28;20479;-74
2021/01/24 03:37:56;;;;;;;15.10;8.27;;;;;;;;;;8256341;28;20486;-74
2021/01/24 03:42:00;;;;;;;12.73;7.00;;;;;;;;;;8258050;28;20380;-74
2021/01/24 03:46:03;;;;;;;13.90;6.90;;;;;;;;;;8256369;28;20472;-74
2021/01/24 03:50:07;;;;;;;13.05;7.38;;;;;;;;;;8260160;28;20102;-73
2021/01/24 03:54:10;;;;;;;9.32;5.47;;;;;;;;;;8278174;28;20467;-74
2021/01/24 03:58:13;;;;;;;12.18;5.57;;;;;;;;;;8263116;28;20056;-75
2021/01/24 04:02:23;;;;;;;11.45;5.63;;;;;;;;;;8257548;28;20463;-74
2021/01/24 04:06:27;;;;;;;8.88;5.10;;;;;;;;;;8257891;28;20348;-74
2021/01/24 04:10:29;;;;;;;9.32;4.97;;;;;;;;;;8257050;28;20380;-74
2021/01/24 04:14:33;;;;;;;7.22;5.35;;;;;;;;;;8257439;28;20491;-73
2021/01/24 04:18:38;;;;;;;8.63;5.43;;;;;;;;;;8257029;28;20383;-74
2021/01/24 04:22:41;;;;;;;10.43;5.50;;;;;;;;;;8256717;28;20510;-74
2021/01/24 04:26:45;;;;;;;10.27;5.60;;;;;;;;;;8255694;28;20056;-73
2021/01/24 04:30:48;;;;;;;11.20;5.82;;;;;;;;;;8257955;28;20480;-73
2021/01/24 04:34:51;;;;;;;7.80;5.25;;;;;;;;;;8256322;28;20472;-73
2021/01/24 04:38:55;;;;;;;10.75;6.15;;;;;;;;;;8279409;28;20383;-74
2021/01/24 04:42:58;;;;;;;7.80;5.38;;;;;;;;;;8256818;28;20353;-73
2021/01/24 04:47:02;;;;;;;9.85;6.25;;;;;;;;;;8256407;28;20411;-74
2021/01/24 04:51:06;;;;;;;11.88;6.30;;;;;;;;;;8237883;28;20485;-74
2021/01/24 04:55:11;;;;;;;13.88;8.27;;;;;;;;;;8255263;28;20383;-73
2021/01/24 04:59:14;;;;;;;15.82;8.70;;;;;;;;;;8255999;28;20410;-75
2021/01/24 05:03:17;;;;;;;14.32;8.27;;;;;;;;;;8256182;28;20388;-73
2021/01/24 05:07:20;;;;;;;13.27;8.77;;;;;;;;;;8254499;28;20480;-74
2021/01/24 05:11:24;;;;;;;18.00;7.50;;;;;;;;;;8254776;28;20368;-73
2021/01/24 05:15:42;;;;;;;11.68;6.63;;;;;;;;;;8317955;27;21105;-75
2021/01/24 05:19:45;;;;;;;10.52;6.32;;;;;;;;;;8285481;28;20577;-74
2021/01/24 05:23:48;;;;;;;9.95;6.45;;;;;;;;;;8284739;28;20466;-75
2021/01/24 05:27:51;;;;;;;10.23;6.00;;;;;;;;;;8285344;28;20053;-75
2021/01/24 05:31:55;;;;;;;11.40;6.05;;;;;;;;;;8284834;28;20092;-74
2021/01/24 05:35:59;;;;;;;11.82;7.20;;;;;;;;;;8282801;28;20466;-74
2021/01/24 05:40:02;;;;;;;10.35;6.15;;;;;;;;;;8284207;28;20044;-75
2021/01/24 05:44:13;;;;;;;35.83;11.88;;;;;;;;;;8284232;28;20487;-75
2021/01/24 05:48:17;;;;;;;12.68;7.45;;;;;;;;;;8283937;28;20075;-74
2021/01/24 05:52:20;;;;;;;12.30;5.85;;;;;;;;;;8282018;28;20367;-74
2021/01/24 05:56:24;;;;;;;21.73;9.40;;;;;;;;;;8283626;28;20421;-74
2021/01/24 06:00:29;;;;;;;21.80;11.35;;;;;;;;;;8281903;28;20045;-75
2021/01/24 06:04:32;;;;;;;58.58;15.48;;;;;;;;;;8281734;28;20361;-74
2021/01/24 06:08:35;;;;;;;107.93;28.25;;;;;;;;;;8282304;28;20490;-74
2021/01/24 06:12:42;;;;;;;70.20;20.55;;;;;;;;;;8281511;28;20048;-74
2021/01/24 06:16:48;;;;;;;20.33;10.48;;;;;;;;;;8265917;28;20052;-74
2021/01/24 06:20:58;;;;;;;17.27;8.60;;;;;;;;;;8274817;28;20452;-75
2021/01/24 06:25:10;;;;;;;17.13;8.32;;;;;;;;;;8268308;28;20080;-74
2021/01/24 06:29:16;;;;;;;38.55;14.55;;;;;;;;;;8253237;28;20422;-74
2021/01/24 06:33:23;;;;;;;29.17;10.25;;;;;;;;;;8257662;28;20648;-74
2021/01/24 06:37:28;;;;;;;16.25;8.05;;;;;;;;;;8259762;28;20480;-75
2021/01/24 06:41:47;;;;;;;12.57;7.57;;;;;;;;;;8260484;28;20456;-74
2021/01/24 06:45:50;;;;;;;11.88;7.07;;;;;;;;;;8252422;28;20348;-74
2021/01/24 06:49:54;;;;;;;12.73;5.85;;;;;;;;;;8250522;28;20049;-74
2021/01/24 06:53:57;;;;;;;16.73;9.13;;;;;;;;;;8260064;28;20393;-74
2021/01/24 06:58:48;;;;;;;15.98;8.05;;;;;;;;;;8248967;28;20074;-74
2021/01/24 07:02:52;;;;;;;17.20;9.38;;;;;;;;;;8251754;28;20060;-75
2021/01/24 07:07:11;;;;;;;29.08;15.10;;;;;;;;;;8251402;28;20479;-75
2021/01/24 07:11:50;;;;;;;22.08;10.15;;;;;;;;;;8240857;28;20388;-75
2021/01/24 07:15:58;;;;;;;22.85;11.63;;;;;;;;;;8244308;28;20075;-74
2021/01/24 07:20:03;;;;;;;22.60;11.07;;;;;;;;;;8213925;28;20416;-74
2021/01/24 07:24:07;;;;;;;19.15;9.45;;;;;;;;;;8214880;28;20370;-74
2021/01/24 07:28:12;;;;;;;23.45;9.82;;;;;;;;;;8224246;28;20534;-73
2021/01/24 07:32:21;;;;;;;19.52;11.57;;;;;;;;;;8153070;28;20363;-73
2021/01/24 07:36:26;;;;;;;22.27;10.48;;;;;;;;;;8157132;28;20073;-73
2021/01/24 07:40:30;;;;;;;26.83;13.57;;;;;;;;;;8184918;28;20054;-74
2021/01/24 07:44:34;;;;;;;22.73;11.75;;;;;;;;;;8188091;28;20522;-74
2021/01/24 07:48:37;;;;;;;20.15;11.02;;;;;;;;;;8192553;28;20484;-74
2021/01/24 07:52:41;;;;;;;670.03;234.38;;;;;;;;;;8193436;28;20049;-73
2021/01/24 07:56:46;;;;;;;663.97;234.13;;;;;;;;;;8175543;28;20453;-73
2021/01/24 08:00:49;;;;;;;454.10;146.85;;;;;;;;;;8189242;28;20354;-73
2021/01/24 08:04:52;;;;;;;95.30;41.83;;;;;;;;;;8192579;28;20062;-74
2021/01/24 08:08:55;;;;;;;79.20;28.20;;;;;;;;;;8188201;28;20473;-73
2021/01/24 08:13:02;;;;;;;60.03;22.70;;;;;;;;;;8190744;28;20380;-73
2021/01/24 08:17:09;;;;;;;38.33;18.65;;;;;;;;;;8188409;28;20401;-73
2021/01/24 08:21:14;;;;;;;81.75;44.65;;;;;;;;;;8181838;28;20493;-73
2021/01/24 08:25:18;;;;;;;48.55;25.75;;;;;;;;;;8185052;28;20487;-73
2021/01/24 08:29:22;;;;;;;34.47;21.27;;;;;;;;;;8188704;28;20534;-73
2021/01/24 08:33:26;;;;;;;26.25;13.98;;;;;;;;;;8190866;28;20481;-73
2021/01/24 08:37:29;;;;;;;38.50;21.17;;;;;;;;;;8189418;28;20388;-74
2021/01/24 08:46:27;;;;;;;88.30;38.63;;;;;;;;;;8153402;28;20520;-74
2021/01/24 08:50:33;;;;;;;269.30;69.25;;;;;;;;;;8115863;28;20406;-75
2021/01/24 08:54:40;;;;;;;258.42;68.70;;;;;;;;;;8154528;28;20058;-74
2021/01/24 08:58:52;;;;;;;291.88;77.05;;;;;;;;;;8152178;28;20377;-74
2021/01/24 09:03:00;;;;;;;95.95;42.40;;;;;;;;;;8154918;28;20456;-74
2021/01/24 09:07:20;;;;;;;107.97;36.67;;;;;;;;;;8157160;28;20499;-74
2021/01/24 09:11:24;;;;;;;61.47;29.75;;;;;;;;;;8153652;28;20476;-74
2021/01/24 09:15:30;;;;;;;216.27;60.85;;;;;;;;;;8169099;28;20384;-74
2021/01/24 09:19:39;;;;;;;163.68;45.35;;;;;;;;;;8188035;28;20404;-74
2021/01/24 09:23:42;;;;;;;44.90;21.60;;;;;;;;;;8191215;28;20407;-74
2021/01/24 09:27:46;;;;;;;60.08;23.45;;;;;;;;;;8187619;28;20072;-75
2021/01/24 09:31:51;;;;;;;356.10;68.50;;;;;;;;;;8187792;28;20116;-74
2021/01/24 09:36:10;;;;;;;546.83;123.35;;;;;;;;;;8189066;28;20534;-75
2021/01/24 09:40:14;;;;;;;144.35;39.80;;;;;;;;;;8173362;28;20068;-76
2021/01/24 09:44:17;;;;;;;80.10;27.90;;;;;;;;;;8190362;28;20378;-74
2021/01/24 09:48:23;;;;;;;359.55;78.68;;;;;;;;;;8170047;28;20046;-74
2021/01/24 09:52:28;;;;;;;60.33;27.05;;;;;;;;;;8186178;28;20058;-76
2021/01/24 09:56:31;;;;;;;258.77;57.63;;;;;;;;;;8187900;28;20076;-74
2021/01/24 10:00:35;;;;;;;186.00;41.00;;;;;;;;;;8190116;28;20472;-75
2021/01/24 10:04:39;;;;;;;349.92;66.88;;;;;;;;;;8191722;28;20495;-74
2021/01/24 10:08:42;;;;;;;173.70;45.35;;;;;;;;;;8191809;28;20050;-74
2021/01/24 10:12:46;;;;;;;403.83;77.43;;;;;;;;;;8194973;28;20380;-75
2021/01/24 10:16:49;;;;;;;57.60;26.90;;;;;;;;;;8195574;28;20480;-74
2021/01/24 10:20:53;;;;;;;79.95;33.60;;;;;;;;;;8191080;28;20364;-74
2021/01/24 10:24:57;;;;;;;96.35;39.63;;;;;;;;;;8194248;28;20407;-75
2021/01/24 10:29:00;;;;;;;258.08;59.72;;;;;;;;;;8193249;28;20460;-75
2021/01/24 10:33:03;;;;;;;153.25;44.60;;;;;;;;;;8194148;28;20373;-74
2021/01/24 10:37:08;;;;;;;106.72;35.72;;;;;;;;;;8194013;28;20483;-75
2021/01/24 10:41:11;;;;;;;61.65;25.27;;;;;;;;;;8193617;28;20392;-74
2021/01/24 10:45:15;;;;;;;108.63;38.40;;;;;;;;;;8194503;28;20473;-74
2021/01/24 10:49:18;;;;;;;240.45;61.80;;;;;;;;;;8185840;28;20054;-75
2021/01/24 10:53:23;;;;;;;72.22;30.10;;;;;;;;;;8191834;28;20453;-75
2021/01/24 10:57:27;;;;;;;183.25;48.97;;;;;;;;;;8193885;28;20461;-77
2021/01/24 11:01:30;;;;;;;120.45;36.92;;;;;;;;;;8188411;28;20412;-75
2021/01/24 11:05:33;;;;;;;236.45;54.13;;;;;;;;;;8190745;28;20412;-74
2021/01/24 11:09:36;;;;;;;267.90;58.25;;;;;;;;;;8184203;28;20054;-75
2021/01/24 11:13:40;;;;;;;119.97;40.58;;;;;;;;;;8191041;28;20069;-74
2021/01/24 11:17:44;;;;;;;195.65;55.60;;;;;;;;;;8193000;28;20491;-75
2021/01/24 11:21:50;;;;;;;128.73;36.60;;;;;;;;;;8186394;28;20362;-74
2021/01/24 11:25:53;;;;;;;56.15;24.63;;;;;;;;;;8194254;28;20076;-74
2021/01/24 11:29:56;;;;;;;83.57;28.40;;;;;;;;;;8191376;28;20389;-75
2021/01/24 11:34:00;;;;;;;135.75;39.55;;;;;;;;;;8192334;28;20444;-75
2021/01/24 11:38:03;;;;;;;107.60;29.90;;;;;;;;;;8190205;28;20453;-75
2021/01/24 11:42:06;;;;;;;60.72;22.85;;;;;;;;;;8183645;28;20068;-75
2021/01/24 11:46:09;;;;;;;89.82;26.05;;;;;;;;;;8190447;28;20491;-75
2021/01/24 11:50:13;;;;;;;43.30;19.33;;;;;;;;;;8190767;28;20072;-75
2021/01/24 11:54:17;;;;;;;37.17;17.95;;;;;;;;;;8190511;28;20416;-75
2021/01/24 11:58:21;;;;;;;32.30;14.90;;;;;;;;;;8186631;28;20480;-75
2021/01/24 12:02:25;;;;;;;68.03;23.45;;;;;;;;;;8191624;28;20116;-75
2021/01/24 12:06:29;;;;;;;26.00;14.80;;;;;;;;;;8190141;28;20464;-74
2021/01/24 12:10:33;;;;;;;38.45;17.73;;;;;;;;;;8188487;28;20099;-75
2021/01/24 12:14:39;;;;;;;101.45;33.03;;;;;;;;;;8188066;28;20480;-74
2021/01/24 12:18:42;;;;;;;68.93;23.75;;;;;;;;;;8183037;28;20472;-75
2021/01/24 12:22:45;;;;;;;59.10;22.30;;;;;;;;;;8170747;28;20562;-75
2021/01/24 12:26:48;;;;;;;58.80;23.05;;;;;;;;;;8190365;28;20487;-74
2021/01/24 12:30:51;;;;;;;146.65;47.67;;;;;;;;;;8185150;28;20376;-75
2021/01/24 12:34:55;;;;;;;80.07;29.48;;;;;;;;;;8187459;28;20076;-75
2021/01/24 12:38:58;;;;;;;89.63;28.02;;;;;;;;;;8187349;28;20491;-75
2021/01/24 12:43:01;;;;;;;53.30;20.08;;;;;;;;;;8188784;28;20380;-75
2021/01/24 12:47:09;;;;;;;109.03;33.30;;;;;;;;;;8189061;28;20377;-75
2021/01/24 12:51:15;;;;;;;48.13;20.08;;;;;;;;;;8185063;28;20573;-75
2021/01/24 12:55:23;;;;;;;73.93;28.10;;;;;;;;;;8178607;28;20469;-76
2021/01/24 12:59:27;;;;;;;67.68;23.80;;;;;;;;;;8162704;28;20377;-75
2021/01/24 13:03:30;;;;;;;87.35;29.27;;;;;;;;;;8186158;28;20050;-75
2021/01/24 13:07:35;;;;;;;74.55;29.50;;;;;;;;;;8187945;28;20050;-75
2021/01/24 13:11:38;;;;;;;77.68;27.52;;;;;;;;;;8187335;28;20376;-75
2021/01/24 13:15:42;;;;;;;110.75;34.70;;;;;;;;;;8189010;28;20404;-75
2021/01/24 13:19:48;;;;;;;118.53;43.42;;;;;;;;;;8186855;28;20481;-75
2021/01/24 13:23:52;;;;;;;84.70;33.97;;;;;;;;;;8170907;28;20389;-75
2021/01/24 13:27:56;;;;;;;83.07;33.05;;;;;;;;;;8188570;28;20688;-75
2021/01/24 13:31:59;;;;;;;77.25;31.25;;;;;;;;;;8190500;28;20120;-75
2021/01/24 13:36:02;;;;;;;65.78;26.55;;;;;;;;;;8191941;28;20046;-76
2021/01/24 13:40:06;;;;;;;92.97;34.85;;;;;;;;;;8193271;28;20383;-75
2021/01/24 13:44:09;;;;;;;107.15;39.42;;;;;;;;;;8195607;28;20388;-75
2021/01/24 13:48:13;;;;;;;101.30;37.25;;;;;;;;;;8196139;28;20503;-76
2021/01/24 13:52:20;;;;;;;115.95;45.58;;;;;;;;;;8193020;28;20600;-75
2021/01/24 13:56:23;;;;;;;99.30;36.88;;;;;;;;;;8196714;28;20492;-76
2021/01/24 14:00:27;;;;;;;92.85;33.00;;;;;;;;;;8193581;28;20416;-74
2021/01/24 14:04:31;;;;;;;45.20;17.45;;;;;;;;;;8196435;28;20085;-75
2021/01/24 14:08:34;;;;;;;41.75;18.58;;;;;;;;;;8192770;28;20424;-74
2021/01/24 14:12:38;;;;;;;40.25;17.40;;;;;;;;;;8192755;28;20373;-75
2021/01/24 14:16:41;;;;;;;88.35;29.65;;;;;;;;;;8190369;28;20421;-75
2021/01/24 14:20:45;;;;;;;120.53;42.28;;;;;;;;;;8190354;28;20050;-76
2021/01/24 14:24:48;;;;;;;79.90;30.88;;;;;;;;;;8189344;28;20416;-75
2021/01/24 14:28:56;;;;;;;57.17;21.55;;;;;;;;;;8189975;28;20041;-76
2021/01/24 14:32:59;;;;;;;80.32;28.23;;;;;;;;;;8159215;28;20365;-75
2021/01/24 14:37:02;;;;;;;84.40;37.38;;;;;;;;;;8195746;28;20083;-75
2021/01/24 14:41:06;;;;;;;57.88;27.10;;;;;;;;;;8192731;28;20045;-74
2021/01/24 14:45:10;;;;;;;110.45;48.25;;;;;;;;;;8195212;28;20384;-74
2021/01/24 14:49:14;;;;;;;110.68;45.45;;;;;;;;;;8192828;28;20373;-75
2021/01/24 14:53:19;;;;;;;226.57;93.18;;;;;;;;;;8191131;28;20372;-75
2021/01/24 14:57:22;;;;;;;108.43;42.40;;;;;;;;;;8193778;28;20416;-75
2021/01/24 15:01:26;;;;;;;138.52;50.70;;;;;;;;;;8189389;28;20493;-76
2021/01/24 15:05:30;;;;;;;119.65;42.33;;;;;;;;;;8191964;28;20477;-75
2021/01/24 15:09:41;;;;;;;70.10;26.30;;;;;;;;;;8189110;28;20498;-75
2021/01/24 15:13:44;;;;;;;307.42;109.55;;;;;;;;;;8190298;28;20484;-75
2021/01/24 15:17:47;;;;;;;910.17;276.08;;;;;;;;;;8190336;28;20491;-75
2021/01/24 15:21:51;;;;;;;1999.90;824.47;;;;;;;;;;8189428;28;20480;-76
2021/01/24 15:25:55;;;;;;;1999.90;628.47;;;;;;;;;;8193738;28;20057;-75
2021/01/24 15:29:58;;;;;;;1417.75;406.40;;;;;;;;;;8190718;28;20358;-75
2021/01/24 15:34:01;;;;;;;402.08;72.85;;;;;;;;;;8192350;28;20046;-76
2021/01/24 15:38:06;;;;;;;358.98;59.95;;;;;;;;;;8193559;28;20493;-75
2021/01/24 15:42:09;;;;;;;498.55;86.20;;;;;;;;;;8191221;28;20380;-75
2021/01/24 15:46:12;;;;;;;421.60;78.45;;;;;;;;;;8190545;28;20354;-76
2021/01/24 15:50:16;;;;;;;374.77;67.10;;;;;;;;;;8188866;28;20503;-75
2021/01/24 15:54:19;;;;;;;1068.82;365.27;;;;;;;;;;8190103;28;20385;-75
2021/01/24 15:58:23;;;;;;;674.85;131.27;;;;;;;;;;8188420;28;20488;-76
2021/01/24 16:02:27;;;;;;;431.50;74.35;;;;;;;;;;8191278;28;20066;-75
2021/01/24 16:06:31;;;;;;;230.07;45.90;;;;;;;;;;8191896;28;20384;-75
2021/01/24 16:10:34;;;;;;;234.60;49.33;;;;;;;;;;8191197;28;21284;-74
2021/01/24 16:14:38;;;;;;;223.18;52.80;;;;;;;;;;8191918;28;20503;-75
2021/01/24 16:18:41;;;;;;;320.65;62.97;;;;;;;;;;8189460;28;20484;-76
2021/01/24 16:22:45;;;;;;;281.23;73.00;;;;;;;;;;8188559;28;20062;-75
2021/01/24 16:26:48;;;;;;;1063.25;431.67;;;;;;;;;;8190204;28;20380;-76
2021/01/24 16:30:51;;;;;;;506.27;107.32;;;;;;;;;;8187691;28;20695;-75
2021/01/24 16:34:55;;;;;;;282.20;55.92;;;;;;;;;;8188279;28;20456;-74
2021/01/24 16:38:58;;;;;;;102.80;26.35;;;;;;;;;;8186913;28;20050;-75
2021/01/24 16:43:04;;;;;;;186.45;44.42;;;;;;;;;;8185429;28;20072;-75
2021/01/24 16:47:09;;;;;;;120.82;35.05;;;;;;;;;;8187467;28;20484;-75
2021/01/24 16:51:12;;;;;;;111.90;37.58;;;;;;;;;;8187269;28;20066;-75
2021/01/24 16:55:15;;;;;;;76.35;28.75;;;;;;;;;;8190662;28;20388;-75
2021/01/24 16:59:19;;;;;;;358.55;150.45;;;;;;;;;;8190427;28;20076;-75
2021/01/24 17:03:22;;;;;;;1187.45;511.45;;;;;;;;;;8195021;28;20060;-75
2021/01/24 17:07:25;;;;;;;379.75;95.18;;;;;;;;;;8194966;28;20376;-75
2021/01/24 17:11:31;;;;;;;270.88;66.82;;;;;;;;;;8194231;28;20507;-75
2021/01/24 17:15:34;;;;;;;113.38;38.20;;;;;;;;;;8196729;28;20589;-75
2021/01/24 17:19:37;;;;;;;106.57;36.47;;;;;;;;;;8194170;28;20061;-74
2021/01/24 17:23:40;;;;;;;158.88;55.17;;;;;;;;;;8187429;28;20072;-74
2021/01/24 17:27:44;;;;;;;142.48;53.90;;;;;;;;;;8185702;28;20385;-74
2021/01/24 17:31:49;;;;;;;105.32;42.50;;;;;;;;;;8181205;28;20476;-74
2021/01/24 17:35:53;;;;;;;222.27;108.82;;;;;;;;;;8189904;28;20052;-74
2021/01/24 17:39:58;;;;;;;465.80;197.45;;;;;;;;;;8191615;28;20401;-75
2021/01/24 17:44:01;;;;;;;389.25;100.80;;;;;;;;;;8191908;28;20081;-74
2021/01/24 17:48:05;;;;;;;141.52;48.85;;;;;;;;;;8189935;28;20476;-73
2021/01/24 17:52:11;;;;;;;97.13;40.42;;;;;;;;;;8172820;28;20384;-74
2021/01/24 17:56:14;;;;;;;66.88;31.35;;;;;;;;;;8191331;28;20389;-73
2021/01/24 18:00:19;;;;;;;75.05;31.88;;;;;;;;;;8189645;28;20400;-74
2021/01/24 18:04:22;;;;;;;82.97;34.70;;;;;;;;;;8191429;28;20380;-74
2021/01/24 18:08:26;;;;;;;103.25;42.83;;;;;;;;;;8191001;28;20457;-74
2021/01/24 18:12:31;;;;;;;114.10;60.80;;;;;;;;;;8190413;28;20408;-74
2021/01/24 18:16:34;;;;;;;855.80;366.95;;;;;;;;;;8189811;28;20495;-74
2021/01/24 18:20:37;;;;;;;133.80;49.35;;;;;;;;;;8192783;28;20049;-74
2021/01/24 18:24:43;;;;;;;92.25;31.00;;;;;;;;;;8150881;28;20469;-74
2021/01/24 18:28:47;;;;;;;78.30;28.98;;;;;;;;;;8195101;28;20400;-74
2021/01/24 18:32:52;;;;;;;81.85;29.52;;;;;;;;;;8196771;28;20073;-74
2021/01/24 18:36:55;;;;;;;71.32;27.17;;;;;;;;;;8196118;28;20077;-74
2021/01/24 18:40:58;;;;;;;81.22;32.63;;;;;;;;;;8194106;28;20495;-72
2021/01/24 18:45:01;;;;;;;79.72;29.92;;;;;;;;;;8179032;28;20477;-73
2021/01/24 18:49:05;;;;;;;108.43;43.28;;;;;;;;;;8196079;28;20054;-72
2021/01/24 18:53:09;;;;;;;430.02;139.07;;;;;;;;;;8178094;28;20364;-72
2021/01/24 18:57:15;;;;;;;151.57;48.97;;;;;;;;;;8193810;28;20388;-74
2021/01/24 19:01:18;;;;;;;117.20;41.83;;;;;;;;;;8195539;28;20477;-74
2021/01/24 19:05:22;;;;;;;121.03;41.60;;;;;;;;;;8195161;28;20076;-74
2021/01/24 19:09:26;;;;;;;77.45;29.20;;;;;;;;;;8195114;28;20380;-74
2021/01/24 19:13:30;;;;;;;162.05;37.70;;;;;;;;;;8193387;28;20388;-74
2021/01/24 19:17:34;;;;;;;84.22;26.48;;;;;;;;;;8177102;28;20506;-72
2021/01/24 19:21:37;;;;;;;373.27;98.90;;;;;;;;;;8194244;28;20411;-74
2021/01/24 19:25:41;;;;;;;180.52;47.63;;;;;;;;;;8195305;28;20391;-74
2021/01/24 19:29:45;;;;;;;473.42;97.63;;;;;;;;;;8194576;28;20456;-74
2021/01/24 19:33:51;;;;;;;360.58;75.20;;;;;;;;;;8194129;28;20061;-73
2021/01/24 19:37:55;;;;;;;536.50;110.50;;;;;;;;;;8193803;28;20428;-73
2021/01/24 19:42:01;;;;;;;560.20;114.88;;;;;;;;;;8193506;28;20488;-73
2021/01/24 19:46:25;;;;;;;285.25;53.75;;;;;;;;;;8192483;28;20392;-73
2021/01/24 19:50:48;;;;;;;395.10;74.75;;;;;;;;;;8193204;28;20358;-73
2021/01/24 19:54:52;;;;;;;452.80;84.72;;;;;;;;;;8194115;28;20481;-74
2021/01/24 19:58:55;;;;;;;140.57;36.22;;;;;;;;;;8191235;28;20487;-74
2021/01/24 20:02:59;;;;;;;181.38;39.15;;;;;;;;;;8192277;28;20495;-74
2021/01/24 20:07:03;;;;;;;443.10;84.32;;;;;;;;;;8192947;28;20493;-72
2021/01/24 20:11:07;;;;;;;353.23;61.85;;;;;;;;;;8192741;28;20488;-73
2021/01/24 20:15:13;;;;;;;523.20;101.22;;;;;;;;;;8191338;28;20428;-74
2021/01/24 20:19:16;;;;;;;449.80;84.85;;;;;;;;;;8191495;28;20485;-74
2021/01/24 20:23:19;;;;;;;355.85;63.17;;;;;;;;;;8158612;28;20482;-73
2021/01/24 20:27:24;;;;;;;271.88;47.50;;;;;;;;;;8192872;28;20072;-73
2021/01/24 20:31:28;;;;;;;240.52;43.83;;;;;;;;;;8192768;28;20485;-74
2021/01/24 20:35:32;;;;;;;432.55;75.05;;;;;;;;;;8192682;28;20380;-74
2021/01/24 20:39:36;;;;;;;479.10;85.82;;;;;;;;;;8192469;28;20385;-71
2021/01/24 20:43:39;;;;;;;384.38;74.55;;;;;;;;;;8190947;28;20068;-72
2021/01/24 20:47:43;;;;;;;404.38;74.25;;;;;;;;;;8193624;28;20456;-72
2021/01/24 20:51:46;;;;;;;164.10;39.55;;;;;;;;;;8192050;28;20409;-73
2021/01/24 20:55:50;;;;;;;149.93;37.00;;;;;;;;;;8192356;28;20492;-73
2021/01/24 20:59:55;;;;;;;228.15;44.83;;;;;;;;;;8192300;28;20380;-73
2021/01/24 21:03:59;;;;;;;387.17;68.15;;;;;;;;;;8191951;28;20050;-73
2021/01/24 21:08:04;;;;;;;269.38;47.47;;;;;;;;;;8191686;28;20370;-73
2021/01/24 21:12:07;;;;;;;614.92;119.82;;;;;;;;;;8190032;28;20062;-75
2021/01/24 21:16:12;;;;;;;189.07;45.47;;;;;;;;;;8191993;28;20050;-73
2021/01/24 21:20:16;;;;;;;126.57;27.95;;;;;;;;;;8191892;28;20465;-75
2021/01/24 21:24:20;;;;;;;134.45;27.48;;;;;;;;;;8190535;28;20372;-74
2021/01/24 21:28:23;;;;;;;179.05;37.58;;;;;;;;;;8190629;28;20504;-74
2021/01/24 21:32:30;;;;;;;69.13;20.58;;;;;;;;;;8190111;28;20473;-74
2021/01/24 21:36:36;;;;;;;373.70;63.95;;;;;;;;;;8189647;28;20486;-72
2021/01/24 21:40:40;;;;;;;339.73;60.13;;;;;;;;;;8191777;28;20046;-73
2021/01/24 21:44:43;;;;;;;358.10;59.60;;;;;;;;;;8189763;28;20391;-73
2021/01/24 21:48:52;;;;;;;91.07;26.10;;;;;;;;;;8174282;28;20352;-74
2021/01/24 21:53:08;;;;;;;368.90;69.50;;;;;;;;;;8191453;28;20384;-73
2021/01/24 21:57:11;;;;;;;295.75;63.42;;;;;;;;;;8193932;28;20380;-73
2021/01/24 22:01:15;;;;;;;55.42;20.73;;;;;;;;;;8197474;28;20388;-74
2021/01/24 22:05:21;;;;;;;37.60;16.70;;;;;;;;;;8195515;28;20484;-74
2021/01/24 22:09:25;;;;;;;135.95;28.13;;;;;;;;;;8196108;28;20379;-73
2021/01/24 22:13:28;;;;;;;319.88;54.55;;;;;;;;;;8196333;28;20058;-73
2021/01/24 22:17:32;;;;;;;570.88;104.82;;;;;;;;;;8179040;28;20457;-73
2021/01/24 22:21:35;;;;;;;376.27;63.80;;;;;;;;;;8195049;28;20081;-73
2021/01/24 22:25:41;;;;;;;525.97;85.38;;;;;;;;;;8211744;28;20479;-73
2021/01/24 22:29:44;;;;;;;312.48;54.92;;;;;;;;;;8179199;28;20369;-73
2021/01/24 22:33:47;;;;;;;83.25;19.40;;;;;;;;;;8195070;28;20468;-73
2021/01/24 22:37:50;;;;;;;306.90;49.83;;;;;;;;;;8196623;28;20657;-73
2021/01/24 22:41:54;;;;;;;593.17;111.20;;;;;;;;;;8196150;28;20460;-73
2021/01/24 22:45:57;;;;;;;365.15;57.33;;;;;;;;;;8196180;28;20046;-73
2021/01/24 22:50:00;;;;;;;298.35;47.03;;;;;;;;;;8196036;28;20477;-73
2021/01/24 22:54:04;;;;;;;57.88;16.98;;;;;;;;;;8196162;28;20488;-73
2021/01/24 22:58:07;;;;;;;116.32;22.00;;;;;;;;;;8194887;28;20046;-72
2021/01/24 23:02:10;;;;;;;217.73;39.45;;;;;;;;;;8194036;28;20156;-73
2021/01/24 23:06:14;;;;;;;206.02;42.17;;;;;;;;;;8195218;28;20384;-73
2021/01/24 23:10:17;;;;;;;237.75;48.63;;;;;;;;;;8193718;28;20492;-73
2021/01/24 23:14:20;;;;;;;187.00;44.20;;;;;;;;;;8210228;28;20434;-73
2021/01/24 23:18:24;;;;;;;120.93;33.63;;;;;;;;;;8195308;28;20115;-72
2021/01/24 23:22:27;;;;;;;115.72;31.27;;;;;;;;;;8177374;28;20072;-73
2021/01/24 23:26:30;;;;;;;112.15;28.13;;;;;;;;;;8194943;28;20113;-73
2021/01/24 23:30:35;;;;;;;266.48;45.33;;;;;;;;;;8177092;28;20383;-73
2021/01/24 23:34:38;;;;;;;148.63;36.22;;;;;;;;;;8193058;28;20379;-73
2021/01/24 23:38:42;;;;;;;90.13;27.70;;;;;;;;;;8209063;28;20046;-73
2021/01/24 23:42:45;;;;;;;62.47;21.75;;;;;;;;;;8194742;28;20380;-73